Time;durP1;ratioP1;P1;durP2;ratioP2;P2;SDS_P1;SDS_P2;PMS_P1;PMS_P2;Temp;Humidity;BMP_temperature;BMP_pressure;BME280_temperature;BME280_humidity;BME280_pressure;Samples;Min_cycle;Max_cycle;Signal;HPM_P1;HPM_P2
2023/03/06 00:00:38;;;;;;;9.10;3.70;;;;;;;-1.92;100.00;98485.79;107307;1270;22524;-70
2023/03/06 00:03:06;;;;;;;9.30;3.90;;;;;;;-1.93;100.00;98486.00;107267;1276;23105;-69
2023/03/06 00:05:34;;;;;;;6.20;3.10;;;;;;;-1.94;100.00;98487.65;107337;1276;25517;-70
2023/03/06 00:08:02;;;;;;;7.70;3.60;;;;;;;-1.93;100.00;98488.47;107514;1276;26515;-70
2023/03/06 00:10:36;;;;;;;8.20;4.20;;;;;;;-1.85;100.00;98494.95;107728;1276;25333;-70
2023/03/06 00:13:10;;;;;;;8.90;3.90;;;;;;;-1.81;100.00;98503.30;107649;1273;26155;-70
2023/03/06 00:15:39;;;;;;;7.80;4.00;;;;;;;-1.82;100.00;98504.77;107645;1276;22748;-70
2023/03/06 00:18:08;;;;;;;8.70;3.80;;;;;;;-1.83;100.00;98504.55;110384;1270;23052;-70
2023/03/06 00:20:39;;;;;;;9.20;3.80;;;;;;;-1.79;100.00;98508.16;110360;1275;23296;-68
2023/03/06 00:23:11;;;;;;;9.00;3.90;;;;;;;-1.77;100.00;98508.80;110414;1275;23029;-68
2023/03/06 00:25:43;;;;;;;10.10;4.20;;;;;;;-1.81;100.00;98508.89;110412;1270;23344;-68
2023/03/06 00:28:13;;;;;;;10.50;4.00;;;;;;;-1.87;100.00;98510.15;110331;1270;23099;-68
2023/03/06 00:30:41;;;;;;;8.20;3.80;;;;;;;-1.89;100.00;98514.85;110437;1274;22201;-69
2023/03/06 00:33:11;;;;;;;9.00;4.10;;;;;;;-1.87;100.00;98517.13;110390;1271;22199;-68
2023/03/06 00:35:39;;;;;;;10.90;4.20;;;;;;;-1.92;100.00;98518.44;110398;1273;22274;-69
2023/03/06 00:38:10;;;;;;;12.10;5.70;;;;;;;-1.99;100.00;98522.66;110398;1275;22543;-69
2023/03/06 00:40:38;;;;;;;7.90;4.20;;;;;;;-1.96;100.00;98517.67;110274;1276;22548;-68
2023/03/06 00:43:06;;;;;;;12.20;4.90;;;;;;;-1.91;100.00;98515.10;110395;1273;23340;-69
2023/03/06 00:45:38;;;;;;;11.90;4.80;;;;;;;-1.94;100.00;98514.48;110324;1269;22364;-69
2023/03/06 00:48:09;;;;;;;9.40;3.30;;;;;;;-1.97;100.00;98515.61;110278;1274;22262;-69
2023/03/06 00:50:37;;;;;;;7.60;3.40;;;;;;;-1.94;100.00;98513.71;110365;1276;22301;-69
2023/03/06 00:53:05;;;;;;;6.70;3.80;;;;;;;-1.90;100.00;98515.35;110401;1275;23139;-69
2023/03/06 00:55:33;;;;;;;7.00;3.10;;;;;;;-1.90;100.00;98516.94;110400;1275;22333;-68
2023/03/06 00:58:01;;;;;;;7.60;3.30;;;;;;;-1.94;100.00;98508.78;110379;1269;22404;-69
2023/03/06 01:00:29;;;;;;;7.00;3.00;;;;;;;-1.92;100.00;98506.11;110376;1275;22212;-69
2023/03/06 01:02:58;;;;;;;5.90;2.80;;;;;;;-1.87;100.00;98507.02;110225;1272;22386;-69
2023/03/06 01:05:27;;;;;;;6.20;2.60;;;;;;;-1.82;100.00;98508.29;110392;1276;22105;-68
2023/03/06 01:08:01;;;;;;;7.30;3.10;;;;;;;-1.84;100.00;98505.77;110314;1270;23454;-68
2023/03/06 01:10:29;;;;;;;6.80;2.80;;;;;;;-1.87;100.00;98505.45;110410;1269;22595;-68
2023/03/06 01:12:58;;;;;;;5.00;2.60;;;;;;;-1.88;100.00;98498.83;108743;1276;22710;-69
2023/03/06 01:15:29;;;;;;;7.40;2.90;;;;;;;-1.81;100.00;98496.62;107579;1271;26628;-69
2023/03/06 01:17:58;;;;;;;6.00;2.50;;;;;;;-1.77;100.00;98496.89;107571;1270;22752;-69
2023/03/06 01:20:25;;;;;;;7.10;3.00;;;;;;;-1.76;100.00;98497.24;107591;1276;24234;-69
2023/03/06 01:22:55;;;;;;;7.60;3.00;;;;;;;-1.79;100.00;98490.98;107418;1273;25520;-69
2023/03/06 01:25:24;;;;;;;7.10;2.80;;;;;;;-1.84;100.00;98489.75;108092;1275;22270;-69
2023/03/06 01:27:53;;;;;;;7.70;3.20;;;;;;;-1.88;100.00;98489.36;107651;1276;25208;-69
2023/03/06 01:30:22;;;;;;;7.40;3.10;;;;;;;-1.90;100.00;98488.34;107430;1273;25369;-69
2023/03/06 01:32:51;;;;;;;5.80;3.10;;;;;;;-1.85;100.00;98490.21;107386;1273;25452;-69
2023/03/06 01:35:19;;;;;;;5.70;2.70;;;;;;;-1.78;100.00;98486.73;107369;1270;25522;-69
2023/03/06 01:37:47;;;;;;;6.80;2.90;;;;;;;-1.73;100.00;98489.70;107496;1276;22529;-69
2023/03/06 01:40:16;;;;;;;7.40;3.00;;;;;;;-1.73;100.00;98491.10;107847;1276;26502;-68
2023/03/06 01:42:44;;;;;;;6.20;2.70;;;;;;;-1.71;100.00;98489.02;107466;1270;22523;-69
2023/03/06 01:45:13;;;;;;;4.90;2.80;;;;;;;-1.69;100.00;98487.41;107228;1274;22573;-69
2023/03/06 01:47:43;;;;;;;8.70;3.40;;;;;;;-1.70;100.00;98490.29;107499;1274;25511;-69
2023/03/06 01:50:11;;;;;;;6.90;3.10;;;;;;;-1.63;100.00;98484.91;107522;1276;25355;-69
2023/03/06 01:52:49;;;;;;;4.80;2.40;;;;;;;-1.58;100.00;98486.29;107603;1275;27511;-69
2023/03/06 01:55:20;;;;;;;;;;;;;;;-1.55;100.00;98484.98;107679;1276;25022;-69
2023/03/06 01:57:52;;;;;;;6.60;2.90;;;;;;;-1.59;100.00;98482.16;107583;1270;25427;-69
2023/03/06 02:00:25;;;;;;;7.90;3.20;;;;;;;-1.65;100.00;98481.11;110287;1276;22334;-69
2023/03/06 02:02:56;;;;;;;6.50;2.80;;;;;;;-1.67;100.00;98481.92;110331;1276;22297;-69
2023/03/06 02:05:24;;;;;;;6.30;3.10;;;;;;;-1.62;100.00;98479.84;110226;1276;22400;-69
2023/03/06 02:08:13;;;;;;;;;;;;;;;-1.53;100.00;98482.80;110415;1276;23151;-69
2023/03/06 02:11:22;;;;;;;5.30;2.60;;;;;;;-1.55;100.00;98480.77;110352;1270;22170;-69
2023/03/06 02:13:51;;;;;;;5.90;2.80;;;;;;;-1.58;100.00;98485.96;110285;1275;22231;-70
2023/03/06 02:16:22;;;;;;;8.10;2.90;;;;;;;-1.57;100.00;98479.38;110197;1276;22407;-69
2023/03/06 02:18:56;;;;;;;7.00;3.00;;;;;;;-1.56;100.00;98477.52;110137;1270;22314;-70
2023/03/06 02:21:30;;;;;;;6.50;2.70;;;;;;;-1.50;100.00;98474.98;110119;1275;22289;-70
2023/03/06 02:24:17;;;;;;;7.80;2.90;;;;;;;-1.49;100.00;98469.89;110185;1275;22306;-70
2023/03/06 02:26:46;;;;;;;5.50;2.70;;;;;;;-1.48;100.00;98471.52;110418;1276;22545;-69
2023/03/06 02:29:23;;;;;;;7.00;2.70;;;;;;;-1.48;100.00;98469.53;110281;1270;22162;-70
2023/03/06 02:31:52;;;;;;;7.20;2.80;;;;;;;-1.44;100.00;98469.70;110249;1276;23187;-70
2023/03/06 02:34:20;;;;;;;6.00;2.90;;;;;;;-1.41;100.00;98468.13;110366;1276;22341;-69
2023/03/06 02:36:49;;;;;;;5.90;2.70;;;;;;;-1.40;100.00;98471.48;110379;1276;22430;-69
2023/03/06 02:39:20;;;;;;;4.20;2.50;;;;;;;-1.32;100.00;98465.74;110180;1275;22262;-69
2023/03/06 02:41:48;;;;;;;5.40;2.70;;;;;;;-1.23;100.00;98464.52;110298;1276;23372;-69
2023/03/06 02:44:17;;;;;;;5.90;2.30;;;;;;;-1.18;100.00;98464.86;110297;1272;22181;-69
2023/03/06 02:46:45;;;;;;;6.90;2.80;;;;;;;-1.20;100.00;98465.00;108228;1270;25316;-70
2023/03/06 02:49:13;;;;;;;7.00;3.30;;;;;;;-1.25;100.00;98462.52;107471;1276;22901;-69
2023/03/06 02:51:42;;;;;;;5.20;3.10;;;;;;;-1.27;100.00;98467.80;107511;1275;25351;-69
2023/03/06 02:54:12;;;;;;;6.10;2.70;;;;;;;-1.29;100.00;98462.79;107522;1276;25423;-69
2023/03/06 02:56:41;;;;;;;8.70;3.70;;;;;;;-1.26;100.00;98465.22;107579;1276;22565;-69
2023/03/06 02:59:10;;;;;;;6.90;3.20;;;;;;;-1.22;100.00;98465.81;107428;1273;25372;-69
2023/03/06 03:01:39;;;;;;;7.10;3.20;;;;;;;-1.19;100.00;98467.37;107367;1273;26701;-69
2023/03/06 03:04:07;;;;;;;7.40;3.50;;;;;;;-1.22;100.00;98463.96;107418;1275;22554;-69
2023/03/06 03:06:36;;;;;;;5.90;3.10;;;;;;;-1.26;100.00;98466.98;110291;1275;22997;-70
2023/03/06 03:09:06;;;;;;;7.90;3.20;;;;;;;-1.29;100.00;98466.64;110404;1276;22389;-69
2023/03/06 03:11:36;;;;;;;9.20;3.60;;;;;;;-1.30;100.00;98463.21;110376;1276;22325;-69
2023/03/06 03:14:05;;;;;;;5.90;3.00;;;;;;;-1.25;100.00;98467.08;110333;1276;22319;-69
2023/03/06 03:16:33;;;;;;;6.50;2.90;;;;;;;-1.24;100.00;98465.59;110368;1269;22390;-69
2023/03/06 03:19:07;;;;;;;6.10;3.20;;;;;;;-1.29;100.00;98462.59;110229;1276;251911;-69
2023/03/06 03:23:01;;;;;;;5.30;2.70;;;;;;;-1.36;100.00;98461.27;104329;1305;545177;-68
2023/03/06 03:25:30;;;;;;;6.10;2.90;;;;;;;-1.39;100.00;98464.45;109363;1290;22881;-69
2023/03/06 03:27:58;;;;;;;9.20;3.40;;;;;;;-1.45;100.00;98461.83;109436;1288;22366;-69
2023/03/06 03:30:27;;;;;;;6.10;2.80;;;;;;;-1.46;100.00;98465.52;109427;1289;22275;-69
2023/03/06 03:32:56;;;;;;;6.00;3.10;;;;;;;-1.46;100.00;98469.39;109410;1289;22334;-69
2023/03/06 03:35:26;;;;;;;7.60;2.60;;;;;;;-1.43;100.00;98463.91;109442;1288;22355;-69
2023/03/06 03:37:56;;;;;;;8.60;3.30;;;;;;;-1.41;100.00;98469.84;109387;1286;22167;-69
2023/03/06 03:40:25;;;;;;;7.20;3.70;;;;;;;-1.39;100.00;98469.45;107257;1285;24413;-68
2023/03/06 03:42:53;;;;;;;8.30;3.50;;;;;;;-1.39;100.00;98470.86;106718;1285;26698;-68
2023/03/06 03:45:21;;;;;;;7.00;3.40;;;;;;;-1.39;100.00;98476.60;106613;1287;22569;-69
2023/03/06 03:47:50;;;;;;;7.80;3.80;;;;;;;-1.34;100.00;98476.65;106701;1286;22648;-69
2023/03/06 03:50:18;;;;;;;7.10;3.60;;;;;;;-1.28;100.00;98478.79;106740;1285;25322;-69
2023/03/06 03:52:47;;;;;;;8.70;3.90;;;;;;;-1.29;100.00;98480.70;106683;1279;25374;-69
2023/03/06 03:55:16;;;;;;;7.50;3.90;;;;;;;-1.34;100.00;98480.10;106721;1287;23355;-69
2023/03/06 03:57:44;;;;;;;8.40;3.80;;;;;;;-1.37;100.00;98480.51;107430;1274;22668;-69
2023/03/06 04:00:15;;;;;;;9.40;4.50;;;;;;;-1.38;100.00;98482.95;107438;1270;24359;-69
2023/03/06 04:02:50;;;;;;;10.00;4.30;;;;;;;-1.40;100.00;98484.33;107407;1274;22753;-69
2023/03/06 04:05:29;;;;;;;6.60;4.10;;;;;;;-1.36;100.00;98483.59;107223;1275;22540;-68
2023/03/06 04:08:02;;;;;;;9.80;4.60;;;;;;;-1.32;100.00;98487.34;107121;1270;23671;-69
2023/03/06 04:10:31;;;;;;;8.90;4.30;;;;;;;-1.29;100.00;98488.70;110377;1274;22215;-70
2023/03/06 04:12:59;;;;;;;11.30;5.80;;;;;;;-1.31;100.00;98489.23;110419;1274;22335;-69
2023/03/06 04:15:32;;;;;;;8.90;4.90;;;;;;;-1.32;100.00;98487.94;110395;1275;22252;-69
2023/03/06 04:18:01;;;;;;;12.70;5.10;;;;;;;-1.33;100.00;98485.80;108472;1270;25380;-69
2023/03/06 04:20:29;;;;;;;10.00;5.00;;;;;;;-1.33;100.00;98490.89;107646;1269;22500;-69
2023/03/06 04:22:58;;;;;;;9.50;4.80;;;;;;;-1.28;100.00;98492.09;107545;1275;24393;-69
2023/03/06 04:25:27;;;;;;;10.90;4.40;;;;;;;-1.26;100.00;98490.79;107517;1275;26100;-69
2023/03/06 04:27:55;;;;;;;7.40;3.90;;;;;;;-1.29;100.00;98491.90;107383;1270;26295;-70
2023/03/06 04:30:26;;;;;;;9.20;4.70;;;;;;;-1.38;100.00;98495.40;107641;1275;23300;-69
2023/03/06 04:32:55;;;;;;;8.30;4.40;;;;;;;-1.48;100.00;98491.74;107716;1269;25423;-69
2023/03/06 04:35:24;;;;;;;9.60;4.50;;;;;;;-1.51;100.00;98494.77;107671;1274;23843;-70
2023/03/06 04:37:57;;;;;;;9.80;4.50;;;;;;;-1.44;100.00;98495.59;107451;1275;22535;-69
2023/03/06 04:40:28;;;;;;;10.00;5.10;;;;;;;-1.41;100.00;98496.37;107408;1275;26082;-70
2023/03/06 04:42:58;;;;;;;8.70;4.70;;;;;;;-1.39;100.00;98501.61;108184;1273;22537;-69
2023/03/06 04:45:27;;;;;;;8.40;4.70;;;;;;;-1.40;100.00;98500.19;107490;1276;23321;-70
2023/03/06 04:47:59;;;;;;;9.90;5.40;;;;;;;-1.42;100.00;98506.01;107652;1276;22552;-70
2023/03/06 04:50:31;;;;;;;8.60;4.10;;;;;;;-1.47;100.00;98506.77;107611;1275;25351;-70
2023/03/06 04:53:01;;;;;;;8.80;4.40;;;;;;;-1.54;100.00;98503.96;107507;1275;22510;-69
2023/03/06 04:55:31;;;;;;;10.10;5.20;;;;;;;-1.54;100.00;98506.69;107631;1275;24183;-70
2023/03/06 04:57:59;;;;;;;9.30;5.70;;;;;;;-1.56;100.00;98509.54;107473;1253;22524;-69
2023/03/06 05:00:30;;;;;;;9.10;4.60;;;;;;;-1.58;100.00;98511.04;107507;1275;25561;-70
2023/03/06 05:02:59;;;;;;;8.10;4.10;;;;;;;-1.62;100.00;98514.20;107491;1273;22921;-70
2023/03/06 05:05:27;;;;;;;8.30;4.20;;;;;;;-1.67;100.00;98517.52;107523;1275;24247;-70
2023/03/06 05:07:55;;;;;;;8.20;4.30;;;;;;;-1.73;100.00;98517.79;107609;1275;23395;-70
2023/03/06 05:10:25;;;;;;;10.30;5.30;;;;;;;-1.76;100.00;98519.45;107398;1276;22625;-69
2023/03/06 05:12:55;;;;;;;9.20;4.70;;;;;;;-1.73;100.00;98523.16;107340;1275;22521;-69
2023/03/06 05:15:23;;;;;;;11.30;6.10;;;;;;;-1.71;100.00;98524.83;107537;1275;24369;-69
2023/03/06 05:17:52;;;;;;;12.40;6.40;;;;;;;-1.68;100.00;98529.02;107478;1274;25513;-69
2023/03/06 05:20:20;;;;;;;13.90;7.20;;;;;;;-1.65;100.00;98531.98;107468;1276;23027;-69
2023/03/06 05:22:48;;;;;;;13.70;6.80;;;;;;;-1.69;100.00;98532.84;107643;1273;25549;-70
2023/03/06 05:25:18;;;;;;;16.20;7.90;;;;;;;-1.74;100.00;98536.10;107648;1270;25360;-69
2023/03/06 05:27:46;;;;;;;15.00;7.20;;;;;;;-1.76;100.00;98538.38;107586;1274;22529;-69
2023/03/06 05:30:14;;;;;;;13.80;7.80;;;;;;;-1.76;100.00;98537.32;107877;1275;22322;-69
2023/03/06 05:32:43;;;;;;;13.10;7.40;;;;;;;-1.69;100.00;98542.77;110386;1267;22380;-69
2023/03/06 05:35:18;;;;;;;15.30;7.50;;;;;;;-1.58;100.00;98542.69;110256;1270;22750;-70
2023/03/06 05:37:47;;;;;;;17.00;7.50;;;;;;;-1.52;100.00;98547.52;110408;1275;23349;-70
2023/03/06 05:40:16;;;;;;;15.20;8.10;;;;;;;-1.56;100.00;98554.61;110399;1269;22993;-70
2023/03/06 05:42:44;;;;;;;16.10;8.50;;;;;;;-1.61;100.00;98564.36;110435;1275;22205;-70
2023/03/06 05:45:12;;;;;;;17.90;8.50;;;;;;;-1.62;100.00;98561.01;110415;1275;22606;-70
2023/03/06 05:47:40;;;;;;;14.20;8.20;;;;;;;-1.54;100.00;98563.98;110397;1275;22989;-69
2023/03/06 05:50:12;;;;;;;11.60;7.50;;;;;;;-1.44;100.00;98563.31;110352;1271;22212;-70
2023/03/06 05:52:42;;;;;;;13.30;6.70;;;;;;;-1.40;100.00;98569.88;110372;1268;22215;-70
2023/03/06 05:55:11;;;;;;;13.30;6.80;;;;;;;-1.38;100.00;98569.98;110299;1275;22255;-70
2023/03/06 05:57:41;;;;;;;9.60;5.90;;;;;;;-1.38;100.00;98561.76;110395;1272;22405;-70
2023/03/06 06:00:10;;;;;;;13.30;7.20;;;;;;;-1.37;100.00;98563.80;110343;1267;22311;-70
2023/03/06 06:02:41;;;;;;;12.10;6.90;;;;;;;-1.28;100.00;98562.14;110234;1269;22188;-67
2023/03/06 06:05:10;;;;;;;12.20;6.60;;;;;;;-1.24;100.00;98561.23;110375;1269;22425;-67
2023/03/06 06:07:41;;;;;;;11.10;6.70;;;;;;;-1.28;100.00;98561.36;110391;1273;22268;-69
2023/03/06 06:10:10;;;;;;;11.50;6.20;;;;;;;-1.34;100.00;98569.61;110386;1275;22368;-70
2023/03/06 06:12:39;;;;;;;12.00;6.90;;;;;;;-1.31;100.00;98576.95;110396;1275;22335;-69
2023/03/06 06:15:07;;;;;;;13.00;6.50;;;;;;;-1.20;100.00;98589.02;110402;1269;22425;-70
2023/03/06 06:17:36;;;;;;;11.90;6.60;;;;;;;-1.14;100.00;98591.75;110398;1272;22412;-71
2023/03/06 06:20:05;;;;;;;12.60;7.20;;;;;;;-1.21;100.00;98592.69;110457;1269;22199;-70
2023/03/06 06:22:35;;;;;;;11.30;6.40;;;;;;;-1.26;100.00;98602.36;110389;1268;22943;-70
2023/03/06 06:25:05;;;;;;;10.10;6.30;;;;;;;-1.26;100.00;98602.00;110366;1275;22281;-69
2023/03/06 06:27:34;;;;;;;10.00;5.80;;;;;;;-1.17;100.00;98607.80;108087;1273;23670;-69
2023/03/06 06:30:04;;;;;;;11.00;6.60;;;;;;;-1.03;100.00;98611.40;107562;1275;25414;-69
2023/03/06 06:32:35;;;;;;;14.80;7.80;;;;;;;-0.88;100.00;98611.92;107438;1269;24953;-69
2023/03/06 06:35:03;;;;;;;14.60;8.90;;;;;;;-0.77;100.00;98611.33;107615;1269;25401;-69
2023/03/06 06:37:31;;;;;;;16.60;10.00;;;;;;;-0.71;100.00;98612.81;107664;1270;25347;-69
2023/03/06 06:40:00;;;;;;;14.60;8.30;;;;;;;-0.58;100.00;98619.87;107720;1273;24521;-68
2023/03/06 06:42:28;;;;;;;12.20;6.70;;;;;;;-0.35;100.00;98619.73;108033;1267;25462;-68
2023/03/06 06:45:08;;;;;;;9.70;5.80;;;;;;;-0.15;100.00;98626.41;107576;1269;25311;-69
2023/03/06 06:47:40;;;;;;;11.00;6.10;;;;;;;-0.14;100.00;98627.46;108120;1275;22515;-68
2023/03/06 06:50:12;;;;;;;10.90;6.40;;;;;;;-0.19;100.00;98625.50;107554;1275;22625;-68
2023/03/06 06:52:41;;;;;;;11.10;6.10;;;;;;;-0.17;100.00;98626.70;107750;1270;23177;-68
2023/03/06 06:55:09;;;;;;;10.10;6.30;;;;;;;-0.11;100.00;98625.55;107715;1269;24269;-68
2023/03/06 06:57:40;;;;;;;10.40;6.70;;;;;;;0.02;100.00;98630.58;108083;1274;25400;-68
2023/03/06 07:00:09;;;;;;;12.30;6.70;;;;;;;0.10;100.00;98632.98;107597;1271;22734;-68
2023/03/06 07:02:38;;;;;;;11.40;7.00;;;;;;;0.21;100.00;98636.39;110071;1270;22360;-67
2023/03/06 07:05:07;;;;;;;10.20;6.50;;;;;;;0.33;100.00;98643.86;110384;1267;22405;-68
2023/03/06 07:07:36;;;;;;;12.40;7.30;;;;;;;0.35;100.00;98644.23;110366;1270;22319;-68
2023/03/06 07:10:12;;;;;;;10.80;6.50;;;;;;;0.43;100.00;98648.05;110324;1275;22307;-68
2023/03/06 07:12:45;;;;;;;10.00;6.50;;;;;;;0.51;100.00;98650.91;110448;1274;22319;-67
2023/03/06 07:15:14;;;;;;;11.70;6.80;;;;;;;0.49;100.00;98652.64;110449;1269;23775;-68
2023/03/06 07:17:42;;;;;;;11.20;6.00;;;;;;;0.44;100.00;98655.58;110221;1269;25329;-67
2023/03/06 07:20:13;;;;;;;10.70;5.70;;;;;;;0.40;100.00;98652.84;107431;1269;26217;-67
2023/03/06 07:22:41;;;;;;;9.50;5.60;;;;;;;0.31;100.00;98655.30;107508;1275;26500;-67
2023/03/06 07:25:19;;;;;;;10.30;5.70;;;;;;;0.15;100.00;98654.83;107600;1275;22550;-67
2023/03/06 07:27:53;;;;;;;10.20;6.00;;;;;;;0.08;100.00;98652.14;107832;1272;25446;-67
2023/03/06 07:30:22;;;;;;;14.70;5.90;;;;;;;0.20;100.00;98657.30;107584;1270;22469;-67
2023/03/06 07:32:57;;;;;;;9.00;4.90;;;;;;;0.39;100.00;98660.75;107577;1272;22540;-68
2023/03/06 07:35:26;;;;;;;10.50;5.20;;;;;;;0.43;100.00;98661.48;107416;1273;26725;-66
2023/03/06 07:37:58;;;;;;;9.70;4.70;;;;;;;0.47;100.00;98666.30;107768;1270;25344;-68
2023/03/06 07:40:27;;;;;;;8.60;4.70;;;;;;;0.52;100.00;98672.77;107591;1275;25501;-66
2023/03/06 07:42:56;;;;;;;9.10;4.60;;;;;;;0.46;100.00;98671.63;107459;1275;22642;-67
2023/03/06 07:45:54;;;;;;;9.60;4.90;;;;;;;0.44;100.00;98670.08;107345;1273;24238;-68
2023/03/06 07:48:23;;;;;;;7.60;4.30;;;;;;;0.48;100.00;98675.33;107606;1275;22586;-68
2023/03/06 07:51:02;;;;;;;7.10;3.80;;;;;;;0.50;100.00;98674.08;107990;1272;23447;-68
2023/03/06 07:53:32;;;;;;;13.80;4.60;;;;;;;0.48;100.00;98670.21;108383;1274;22520;-68
2023/03/06 07:56:07;;;;;;;5.90;3.70;;;;;;;0.34;100.00;98671.23;107426;1275;22995;-67
2023/03/06 07:58:37;;;;;;;8.60;4.30;;;;;;;0.12;100.00;98668.14;107664;1269;24457;-68
2023/03/06 08:01:08;;;;;;;8.00;4.60;;;;;;;0.03;100.00;98672.92;110441;1275;23086;-68
2023/03/06 08:03:37;;;;;;;9.60;5.00;;;;;;;0.01;100.00;98668.92;110399;1267;22254;-67
2023/03/06 08:06:07;;;;;;;8.10;5.10;;;;;;;0.11;100.00;98671.85;110436;1275;22381;-68
2023/03/06 08:08:38;;;;;;;11.70;5.30;;;;;;;0.23;100.00;98674.35;110434;1275;23405;-69
2023/03/06 08:11:09;;;;;;;9.80;5.10;;;;;;;0.34;100.00;98674.77;110445;1273;22164;-68
2023/03/06 08:13:39;;;;;;;8.00;4.50;;;;;;;0.41;100.00;98673.86;110279;1274;22285;-68
2023/03/06 08:16:07;;;;;;;8.60;3.80;;;;;;;0.40;100.00;98679.52;110364;1267;22674;-68
2023/03/06 08:18:38;;;;;;;9.10;3.70;;;;;;;0.36;100.00;98681.36;110432;1270;23361;-67
2023/03/06 08:21:09;;;;;;;7.10;3.90;;;;;;;0.40;100.00;98682.17;110415;1269;22377;-68
2023/03/06 08:23:40;;;;;;;7.50;4.50;;;;;;;0.45;100.00;98680.73;110417;1270;22372;-68
2023/03/06 08:26:22;;;;;;;6.60;3.60;;;;;;;0.57;100.00;98682.73;110433;1274;22273;-70
2023/03/06 08:28:51;;;;;;;6.70;3.60;;;;;;;0.71;100.00;98679.03;110415;1269;22262;-68
2023/03/06 08:31:32;;;;;;;7.50;3.70;;;;;;;0.98;100.00;98680.24;110445;1274;22307;-69
2023/03/06 08:34:03;;;;;;;8.40;3.50;;;;;;;1.44;100.00;98680.63;110485;1269;22410;-69
2023/03/06 08:36:35;;;;;;;7.40;3.60;;;;;;;1.76;100.00;98683.66;110513;1273;22400;-69
2023/03/06 08:39:04;;;;;;;5.00;3.20;;;;;;;1.88;100.00;98679.92;110377;1273;22416;-69
2023/03/06 08:41:33;;;;;;;6.20;3.30;;;;;;;1.80;100.00;98675.92;110384;1274;22401;-69
2023/03/06 08:44:01;;;;;;;5.10;3.00;;;;;;;1.62;100.00;98668.83;110389;1275;22303;-69
2023/03/06 08:46:29;;;;;;;6.60;3.40;;;;;;;1.53;100.00;98674.80;110444;1273;22278;-67
2023/03/06 08:48:59;;;;;;;6.30;3.30;;;;;;;1.56;100.00;98677.88;110447;1274;22205;-67
2023/03/06 08:51:28;;;;;;;7.00;4.10;;;;;;;1.71;100.00;98678.05;110389;1275;23036;-68
2023/03/06 08:53:59;;;;;;;6.70;3.10;;;;;;;1.95;100.00;98683.64;110401;1275;22288;-68
2023/03/06 08:56:30;;;;;;;4.90;3.10;;;;;;;2.02;100.00;98681.70;110434;1269;22399;-68
2023/03/06 08:58:59;;;;;;;5.30;2.90;;;;;;;2.04;100.00;98681.81;110435;1275;22451;-68
2023/03/06 09:01:29;;;;;;;5.30;2.80;;;;;;;1.99;100.00;98684.02;110399;1269;23150;-67
2023/03/06 09:04:17;;;;;;;6.40;3.10;;;;;;;1.83;100.00;98684.39;110279;1275;23055;-67
2023/03/06 09:06:46;;;;;;;12.70;6.40;;;;;;;1.63;100.00;98687.61;107614;1267;22522;-67
2023/03/06 09:09:14;;;;;;;8.60;4.80;;;;;;;1.59;100.00;98694.07;107614;1271;22581;-68
2023/03/06 09:11:44;;;;;;;4.80;3.10;;;;;;;1.77;100.00;98695.02;107538;1273;26612;-68
2023/03/06 09:14:13;;;;;;;4.70;2.70;;;;;;;2.11;100.00;98693.84;107543;1273;22551;-68
2023/03/06 09:16:42;;;;;;;6.30;3.50;;;;;;;2.29;100.00;98696.14;107523;1271;22524;-68
2023/03/06 09:19:11;;;;;;;9.20;4.30;;;;;;;2.45;100.00;98692.48;107691;1272;23569;-68
2023/03/06 09:21:40;;;;;;;8.00;3.60;;;;;;;2.54;100.00;98697.98;107677;1275;26651;-68
2023/03/06 09:24:13;;;;;;;24.50;12.60;;;;;;;2.52;100.00;98694.58;107606;1270;24213;-68
2023/03/06 09:26:41;;;;;;;24.70;13.60;;;;;;;2.41;100.00;98693.67;107607;1270;25297;-68
2023/03/06 09:29:15;;;;;;;26.60;12.30;;;;;;;2.40;100.00;98690.95;107466;1275;25510;-68
2023/03/06 09:31:47;;;;;;;9.80;3.90;;;;;;;2.38;100.00;98696.52;107577;1267;23520;-68
2023/03/06 09:34:16;;;;;;;18.00;7.30;;;;;;;2.31;100.00;98695.95;107714;1275;22516;-68
2023/03/06 09:36:45;;;;;;;13.50;6.10;;;;;;;2.33;100.00;98695.69;107705;1264;24245;-68
2023/03/06 09:39:26;;;;;;;12.90;5.40;;;;;;;2.65;100.00;98697.27;107639;1273;25170;-68
2023/03/06 09:41:59;;;;;;;10.80;5.60;;;;;;;2.87;100.00;98694.48;107584;1275;22547;-68
2023/03/06 09:44:29;;;;;;;5.50;3.00;;;;;;;2.94;100.00;98698.92;107631;1273;25341;-68
2023/03/06 09:47:06;;;;;;;5.00;2.80;;;;;;;2.81;100.00;98692.34;107625;1274;22516;-69
2023/03/06 09:49:48;;;;;;;5.30;2.80;;;;;;;2.82;100.00;98695.48;107518;1275;23676;-68
2023/03/06 09:52:22;;;;;;;5.00;2.40;;;;;;;2.89;100.00;98693.15;107529;1275;22651;-68
2023/03/06 09:54:54;;;;;;;4.90;2.60;;;;;;;2.73;100.00;98693.50;107708;1269;22964;-68
2023/03/06 09:57:24;;;;;;;9.70;4.50;;;;;;;2.51;100.00;98694.45;107603;1273;24306;-68
2023/03/06 09:59:54;;;;;;;11.10;5.30;;;;;;;2.29;100.00;98695.14;107429;1275;26515;-68
2023/03/06 10:02:44;;;;;;;6.30;3.50;;;;;;;2.16;100.00;98691.30;107310;1273;25508;-68
2023/03/06 10:05:24;;;;;;;6.20;3.10;;;;;;;2.21;100.00;98688.38;107601;1269;23042;-68
2023/03/06 10:08:17;;;;;;;7.00;3.20;;;;;;;2.27;100.00;98691.51;107404;1275;22742;-68
2023/03/06 10:11:00;;;;;;;7.30;2.90;;;;;;;2.16;100.00;98693.83;107639;1273;24421;-68
2023/03/06 10:13:36;;;;;;;7.80;3.40;;;;;;;1.97;100.00;98690.27;107732;1274;23272;-68
2023/03/06 10:16:14;;;;;;;7.90;2.90;;;;;;;2.05;100.00;98685.63;107610;1275;22543;-68
2023/03/06 10:18:45;;;;;;;5.90;3.10;;;;;;;2.14;100.00;98691.21;107297;1275;25412;-68
2023/03/06 10:21:23;;;;;;;6.70;3.00;;;;;;;2.23;100.00;98693.34;107734;1275;23037;-67
2023/03/06 10:23:57;;;;;;;6.10;3.20;;;;;;;2.28;100.00;98692.27;107525;1275;22527;-68
2023/03/06 10:26:32;;;;;;;8.50;3.10;;;;;;;2.31;100.00;98687.41;107492;1275;23581;-68
2023/03/06 10:29:23;;;;;;;6.00;2.70;;;;;;;2.32;100.00;98690.60;107611;1272;24394;-68
2023/03/06 10:31:59;;;;;;;4.20;2.30;;;;;;;2.41;100.00;98684.10;107828;1270;25668;-68
2023/03/06 10:34:29;;;;;;;4.40;2.40;;;;;;;2.49;100.00;98683.30;107720;1267;24354;-68
2023/03/06 10:36:58;;;;;;;5.50;2.60;;;;;;;2.66;100.00;98686.69;107602;1275;22758;-68
2023/03/06 10:39:28;;;;;;;5.20;1.90;;;;;;;2.76;100.00;98683.45;107495;1275;23893;-68
2023/03/06 10:41:56;;;;;;;4.30;2.10;;;;;;;2.75;100.00;98679.19;107634;1273;23363;-68
2023/03/06 10:44:24;;;;;;;5.40;2.20;;;;;;;2.74;100.00;98675.90;107590;1270;25360;-68
2023/03/06 10:46:55;;;;;;;5.50;2.50;;;;;;;2.74;100.00;98680.23;107563;1275;24174;-68
2023/03/06 10:49:34;;;;;;;5.70;2.10;;;;;;;2.67;100.00;98685.79;107585;1273;22691;-68
2023/03/06 10:52:19;;;;;;;4.90;2.40;;;;;;;2.43;100.00;98679.29;110401;1273;23405;-68
2023/03/06 10:54:51;;;;;;;3.90;1.70;;;;;;;2.27;100.00;98673.91;110369;1276;22392;-68
2023/03/06 10:57:27;;;;;;;3.60;1.50;;;;;;;2.27;100.00;98670.60;110401;1275;23066;-68
2023/03/06 10:59:55;;;;;;;3.80;1.70;;;;;;;2.31;100.00;98674.25;110452;1273;22323;-68
2023/03/06 11:02:28;;;;;;;3.80;1.30;;;;;;;2.38;100.00;98674.71;110433;1275;22193;-68
2023/03/06 11:04:58;;;;;;;3.20;1.50;;;;;;;2.36;100.00;98673.48;110422;1275;23106;-68
2023/03/06 11:07:33;;;;;;;5.60;2.00;;;;;;;2.32;100.00;98670.73;110208;1275;22369;-68
2023/03/06 11:10:15;;;;;;;4.10;1.50;;;;;;;2.26;100.00;98669.72;110342;1275;22289;-68
2023/03/06 11:13:09;;;;;;;4.10;1.40;;;;;;;2.19;100.00;98670.30;110450;1267;22327;-68
2023/03/06 11:15:42;;;;;;;5.20;1.70;;;;;;;2.19;100.00;98672.72;110451;1275;22187;-68
2023/03/06 11:18:10;;;;;;;3.10;1.20;;;;;;;2.21;100.00;98672.48;110287;1270;22291;-68
2023/03/06 11:20:49;;;;;;;6.30;3.30;;;;;;;2.19;100.00;98671.83;110427;1273;22464;-68
2023/03/06 11:23:42;;;;;;;3.20;1.50;;;;;;;2.32;100.00;98674.55;110312;1276;22783;-68
2023/03/06 11:26:16;;;;;;;5.60;2.20;;;;;;;2.44;100.00;98671.41;110309;1269;23097;-69
2023/03/06 11:28:47;;;;;;;8.30;4.80;;;;;;;2.50;100.00;98675.64;110403;1273;22198;-68
2023/03/06 11:31:23;;;;;;;5.00;2.70;;;;;;;2.58;100.00;98672.32;110345;1275;22360;-68
2023/03/06 11:34:01;;;;;;;4.10;1.90;;;;;;;2.71;100.00;98674.61;110199;1275;22444;-68
2023/03/06 11:36:32;;;;;;;4.10;2.00;;;;;;;2.84;100.00;98676.30;110489;1275;22200;-68
2023/03/06 11:39:03;;;;;;;2.90;1.40;;;;;;;2.93;100.00;98673.27;110449;1275;22294;-68